Time;durP1;ratioP1;P1;durP2;ratioP2;P2;SDS_P1;SDS_P2;PMS_P1;PMS_P2;Temp;Humidity;BMP_temperature;BMP_pressure;BME280_temperature;BME280_humidity;BME280_pressure;Samples;Min_cycle;Max_cycle;Signal;HPM_P1;HPM_P2
2022/11/30 00:00:06;;;;;;;49.97;15.47;;;;;;;5.76;100.00;96435.47;5056737;28;20208;-71
2022/11/30 00:02:34;;;;;;;44.50;14.57;;;;;;;5.72;100.00;96438.50;5056250;28;20196;-72
2022/11/30 00:05:00;;;;;;;43.20;14.17;;;;;;;5.68;100.00;96447.59;5055910;28;20716;-71
2022/11/30 00:07:27;;;;;;;45.50;14.90;;;;;;;5.71;100.00;96445.50;5056482;28;20212;-72
2022/11/30 00:09:53;;;;;;;43.33;13.70;;;;;;;5.74;100.00;96444.41;5056313;28;21262;-71
2022/11/30 00:12:20;;;;;;;41.13;12.93;;;;;;;5.56;100.00;96436.50;5055257;28;20224;-72
2022/11/30 00:14:46;;;;;;;43.63;14.23;;;;;;;5.77;100.00;96436.31;5055260;28;20663;-72
2022/11/30 00:17:13;;;;;;;43.13;14.47;;;;;;;5.78;100.00;96437.94;5056407;28;20205;-72
2022/11/30 00:19:41;;;;;;;45.10;13.43;;;;;;;5.87;100.00;96435.31;5056518;28;20200;-72
2022/11/30 00:22:07;;;;;;;40.00;13.53;;;;;;;5.76;100.00;96437.28;5056742;28;20200;-71
2022/11/30 00:24:34;;;;;;;46.87;15.03;;;;;;;5.87;100.00;96439.69;5055396;28;21273;-72
2022/11/30 00:27:00;;;;;;;48.03;13.97;;;;;;;5.73;100.00;96442.78;5056016;28;20669;-72
2022/11/30 00:29:27;;;;;;;43.90;14.50;;;;;;;5.67;100.00;96443.34;5056348;28;20672;-72
2022/11/30 00:31:53;;;;;;;42.37;12.87;;;;;;;5.75;100.00;96451.28;5056656;28;20202;-72
2022/11/30 00:34:20;;;;;;;41.67;13.93;;;;;;;5.68;100.00;96442.38;5054976;28;20204;-71
2022/11/30 00:36:48;;;;;;;41.40;14.67;;;;;;;5.83;100.00;96443.56;5056165;28;20691;-72
2022/11/30 00:39:14;;;;;;;43.10;14.33;;;;;;;5.78;100.00;96451.03;5055671;28;20208;-72
2022/11/30 00:41:41;;;;;;;38.83;13.07;;;;;;;5.79;100.00;96447.44;5055942;28;20211;-71
2022/11/30 00:44:07;;;;;;;35.87;13.27;;;;;;;5.76;100.00;96447.75;5055331;28;20201;-72
2022/11/30 00:46:34;;;;;;;34.13;12.67;;;;;;;5.82;100.00;96449.78;5056645;28;20211;-72
2022/11/30 00:49:00;;;;;;;37.63;14.27;;;;;;;5.69;100.00;96457.06;5055972;28;20211;-71
2022/11/30 00:51:27;;;;;;;43.80;14.67;;;;;;;5.77;100.00;96454.63;5056178;28;20262;-72
2022/11/30 00:53:55;;;;;;;37.87;14.43;;;;;;;5.72;100.00;96451.59;5059622;28;20224;-72
2022/11/30 00:56:21;;;;;;;38.13;13.87;;;;;;;5.74;100.00;96457.47;5058923;28;20715;-71
2022/11/30 00:58:48;;;;;;;38.20;14.30;;;;;;;5.69;100.00;96462.31;5059693;28;20204;-71
2022/11/30 01:01:15;;;;;;;38.87;14.13;;;;;;;5.58;100.00;96470.34;5060178;28;20215;-72
2022/11/30 01:03:41;;;;;;;36.57;12.80;;;;;;;5.63;100.00;96462.91;5059432;28;20193;-72
2022/11/30 01:06:09;;;;;;;41.20;14.03;;;;;;;5.57;100.00;96458.22;5059002;28;20228;-72
2022/11/30 01:08:36;;;;;;;34.97;13.10;;;;;;;5.46;100.00;96461.00;5059370;28;20209;-72
2022/11/30 01:11:12;;;;;;;41.03;13.70;;;;;;;5.58;100.00;96463.31;5059617;28;20200;-72
2022/11/30 01:13:38;;;;;;;34.07;13.33;;;;;;;5.36;100.00;96460.19;5058276;28;20234;-72
2022/11/30 01:16:09;;;;;;;43.60;15.33;;;;;;;5.34;100.00;96462.13;5059712;28;20224;-72
2022/11/30 01:18:36;;;;;;;41.90;13.70;;;;;;;5.28;100.00;96475.72;5059406;28;20216;-71
2022/11/30 01:21:06;;;;;;;40.40;14.00;;;;;;;5.46;100.00;96466.25;5058671;28;20227;-72
2022/11/30 01:23:32;;;;;;;39.43;14.40;;;;;;;5.30;100.00;96475.63;5058414;28;20200;-72
2022/11/30 01:25:59;;;;;;;41.83;15.23;;;;;;;5.20;100.00;96475.59;5058502;28;20227;-72
2022/11/30 01:28:27;;;;;;;43.57;16.00;;;;;;;5.35;100.00;96484.66;5059211;28;20212;-71
2022/11/30 01:30:57;;;;;;;42.07;14.77;;;;;;;5.45;100.00;96483.69;5059500;28;20205;-72
2022/11/30 01:33:24;;;;;;;45.30;15.80;;;;;;;5.51;100.00;96480.53;5058917;28;20243;-72
2022/11/30 01:35:58;;;;;;;48.33;15.70;;;;;;;5.53;100.00;96477.75;5058820;28;20227;-71
2022/11/30 01:38:25;;;;;;;50.53;15.67;;;;;;;5.47;100.00;96479.16;5058852;28;20207;-71
2022/11/30 01:40:51;;;;;;;50.40;15.60;;;;;;;5.51;100.00;96484.91;5059417;28;20200;-71
2022/11/30 01:43:19;;;;;;;42.57;15.27;;;;;;;5.62;100.00;96482.97;5059100;28;20196;-72
2022/11/30 01:45:49;;;;;;;48.90;17.23;;;;;;;5.77;100.00;96486.00;5057921;28;20224;-71
2022/11/30 01:48:15;;;;;;;43.00;16.70;;;;;;;5.80;100.00;96496.97;5058711;28;20215;-71
2022/11/30 01:50:45;;;;;;;47.17;15.60;;;;;;;5.74;100.00;96501.91;5058354;28;20226;-72
2022/11/30 01:53:12;;;;;;;50.17;17.00;;;;;;;5.72;100.00;96496.84;5058428;28;20228;-72
2022/11/30 01:55:43;;;;;;;43.40;15.30;;;;;;;5.88;100.00;96499.72;5058096;28;20224;-71
2022/11/30 01:58:12;;;;;;;40.53;15.20;;;;;;;5.85;100.00;96494.75;5058713;28;20214;-71
2022/11/30 02:00:42;;;;;;;46.03;15.37;;;;;;;5.91;100.00;96503.84;5057791;28;20204;-71
2022/11/30 02:03:14;;;;;;;46.27;16.17;;;;;;;5.94;100.00;96498.34;5058229;28;21190;-71
2022/11/30 02:05:42;;;;;;;45.33;16.13;;;;;;;5.86;100.00;96511.31;5056881;28;20227;-71
2022/11/30 02:08:10;;;;;;;42.90;16.10;;;;;;;5.78;100.00;96505.94;5057872;28;20678;-71
2022/11/30 02:10:39;;;;;;;44.97;15.60;;;;;;;5.76;100.00;96502.66;5058662;28;20192;-72
2022/11/30 02:13:23;;;;;;;38.90;15.47;;;;;;;5.89;100.00;96503.16;5059344;28;20228;-71
2022/11/30 02:16:03;;;;;;;48.00;15.90;;;;;;;5.90;100.00;96512.66;5057336;28;20716;-71
2022/11/30 02:18:42;;;;;;;47.63;17.17;;;;;;;5.89;100.00;96508.38;5057857;28;20205;-72
2022/11/30 02:21:13;;;;;;;44.47;15.47;;;;;;;5.65;100.00;96508.00;5058423;28;20219;-71
2022/11/30 02:24:11;;;;;;;42.37;15.37;;;;;;;5.82;100.00;96504.72;5057508;28;20206;-71
2022/11/30 02:26:58;;;;;;;40.83;15.67;;;;;;;5.72;100.00;96509.09;5057344;28;20987;-71
2022/11/30 02:29:30;;;;;;;44.30;15.27;;;;;;;5.82;100.00;96499.47;5057788;28;20691;-71
2022/11/30 02:32:04;;;;;;;44.67;16.03;;;;;;;5.77;100.00;96502.50;5058181;28;20207;-72
2022/11/30 02:34:35;;;;;;;44.93;15.17;;;;;;;5.78;100.00;96500.69;5056909;28;20223;-71
2022/11/30 02:37:03;;;;;;;42.23;14.67;;;;;;;5.78;100.00;96496.31;5058125;28;20204;-72
2022/11/30 02:39:29;;;;;;;44.90;16.80;;;;;;;5.74;100.00;96502.75;5057618;28;20975;-71
2022/11/30 02:41:56;;;;;;;43.80;14.97;;;;;;;5.73;100.00;96502.91;5057647;28;20691;-71
2022/11/30 02:44:24;;;;;;;36.53;13.33;;;;;;;5.69;100.00;96491.06;5056732;28;20269;-71
2022/11/30 02:47:01;;;;;;;44.43;15.87;;;;;;;5.68;100.00;96487.63;5057332;28;20204;-71
2022/11/30 02:49:35;;;;;;;42.00;14.73;;;;;;;5.57;100.00;96494.81;5057469;28;20196;-72
2022/11/30 02:52:03;;;;;;;44.70;14.70;;;;;;;5.48;100.00;96496.47;5057518;28;20664;-71
2022/11/30 02:54:30;;;;;;;39.83;14.17;;;;;;;5.52;100.00;96492.63;5056777;28;20230;-71
2022/11/30 02:56:57;;;;;;;35.90;14.47;;;;;;;5.51;100.00;96492.75;5057222;28;20205;-71
2022/11/30 02:59:24;;;;;;;40.73;14.87;;;;;;;5.50;100.00;96499.78;5057122;28;20220;-71
2022/11/30 03:01:51;;;;;;;39.93;13.70;;;;;;;5.52;100.00;96503.09;5057483;28;20215;-72
2022/11/30 03:04:19;;;;;;;38.40;14.67;;;;;;;5.58;100.00;96497.28;5056514;28;20304;-71
2022/11/30 03:06:45;;;;;;;42.73;15.77;;;;;;;5.50;100.00;96494.56;5057249;28;20200;-71
2022/11/30 03:09:13;;;;;;;44.23;14.23;;;;;;;5.55;100.00;96500.19;5056952;28;20212;-72
2022/11/30 03:11:39;;;;;;;40.40;14.67;;;;;;;5.61;100.00;96498.78;5057096;28;20982;-71
2022/11/30 03:14:06;;;;;;;37.40;13.97;;;;;;;5.56;100.00;96499.22;5056275;28;20224;-71
2022/11/30 03:16:33;;;;;;;37.90;14.23;;;;;;;5.58;100.00;96504.31;5056579;28;20246;-72
2022/11/30 03:19:00;;;;;;;37.73;14.87;;;;;;;5.60;100.00;96502.38;5056993;28;20207;-71
2022/11/30 03:21:28;;;;;;;42.73;13.83;;;;;;;5.64;100.00;96501.94;5056716;28;20853;-72
2022/11/30 03:23:55;;;;;;;38.93;15.20;;;;;;;5.46;100.00;96502.81;5056288;28;20265;-71
2022/11/30 03:26:21;;;;;;;44.90;14.27;;;;;;;5.46;100.00;96503.63;5056443;28;20725;-71
2022/11/30 03:28:48;;;;;;;42.60;15.37;;;;;;;5.41;100.00;96499.81;5056240;28;20212;-71
2022/11/30 03:31:14;;;;;;;44.87;16.37;;;;;;;5.46;100.00;96501.03;5057098;28;20208;-71
2022/11/30 03:33:41;;;;;;;41.53;15.57;;;;;;;5.15;100.00;96506.53;5056586;28;20225;-72
2022/11/30 03:36:11;;;;;;;45.90;16.00;;;;;;;5.23;100.00;96495.41;5056222;28;20226;-72
2022/11/30 03:38:39;;;;;;;34.90;14.10;;;;;;;5.23;100.00;96496.25;5056766;28;20698;-72
2022/11/30 03:41:07;;;;;;;43.13;16.47;;;;;;;5.21;100.00;96498.16;5056448;28;20205;-71
2022/11/30 03:43:34;;;;;;;38.50;15.37;;;;;;;5.31;100.00;96501.59;5055461;28;20759;-71
2022/11/30 03:46:01;;;;;;;49.30;17.43;;;;;;;5.32;100.00;96503.25;5056772;28;20715;-72
2022/11/30 03:48:27;;;;;;;45.03;16.03;;;;;;;5.29;100.00;96500.91;5056692;28;20204;-71
2022/11/30 03:50:54;;;;;;;44.73;16.27;;;;;;;5.33;100.00;96497.03;5056481;28;20208;-72
2022/11/30 03:53:23;;;;;;;40.50;14.83;;;;;;;5.30;100.00;96496.50;5056618;28;20224;-72
2022/11/30 03:55:54;;;;;;;44.47;15.80;;;;;;;5.20;100.00;96493.88;5054594;28;20220;-71
2022/11/30 03:58:20;;;;;;;42.13;16.27;;;;;;;5.14;100.00;96499.69;5056060;28;20208;-71
2022/11/30 04:00:47;;;;;;;42.97;14.90;;;;;;;5.15;100.00;96487.44;5056021;28;21086;-72
2022/11/30 04:03:13;;;;;;;44.47;15.23;;;;;;;5.07;100.00;96495.97;5056590;28;20200;-72
2022/11/30 04:05:40;;;;;;;50.73;17.63;;;;;;;5.11;100.00;96499.13;5055326;28;20224;-71
2022/11/30 04:08:07;;;;;;;42.93;15.83;;;;;;;5.17;100.00;96495.97;5056201;28;20234;-72
2022/11/30 04:10:33;;;;;;;52.60;16.07;;;;;;;5.14;100.00;96491.00;5055900;28;20672;-71
2022/11/30 04:13:01;;;;;;;47.73;15.00;;;;;;;5.03;100.00;96497.19;5056326;28;20216;-71
2022/11/30 04:15:28;;;;;;;41.47;14.87;;;;;;;4.92;100.00;96496.50;5055566;28;20231;-72
2022/11/30 04:17:54;;;;;;;47.47;15.63;;;;;;;4.97;100.00;96504.75;5056516;28;21302;-72
2022/11/30 04:20:21;;;;;;;53.60;16.30;;;;;;;4.92;100.00;96496.50;5056405;28;20208;-72
2022/11/30 04:22:47;;;;;;;42.63;16.10;;;;;;;4.91;100.00;96506.13;5056380;28;20218;-72
2022/11/30 04:25:14;;;;;;;47.33;17.20;;;;;;;4.81;100.00;96503.63;5055800;28;20221;-71
2022/11/30 04:27:40;;;;;;;46.83;15.40;;;;;;;4.76;100.00;96508.44;5058358;28;20200;-71
2022/11/30 04:30:10;;;;;;;57.17;17.97;;;;;;;4.80;100.00;96507.19;5060263;28;20209;-72
2022/11/30 04:32:36;;;;;;;46.03;16.80;;;;;;;4.79;100.00;96508.19;5060544;28;20205;-72
2022/11/30 04:35:03;;;;;;;48.03;15.93;;;;;;;4.62;100.00;96503.59;5059445;28;20242;-71
2022/11/30 04:37:29;;;;;;;45.40;15.73;;;;;;;4.58;100.00;96512.66;5059652;28;21010;-71
2022/11/30 04:39:56;;;;;;;44.97;16.10;;;;;;;4.69;100.00;96504.72;5060113;28;20208;-71
2022/11/30 04:42:22;;;;;;;44.77;16.70;;;;;;;4.61;100.00;96518.44;5060373;28;20200;-71
2022/11/30 04:44:49;;;;;;;40.83;14.40;;;;;;;4.83;100.00;96511.19;5058117;28;20261;-71
2022/11/30 04:47:17;;;;;;;45.20;16.13;;;;;;;4.96;100.00;96514.38;5059937;28;20649;-71
2022/11/30 04:49:43;;;;;;;53.60;16.47;;;;;;;4.81;100.00;96514.09;5060624;28;20201;-72
2022/11/30 04:52:10;;;;;;;47.00;15.63;;;;;;;4.96;100.00;96519.63;5059776;28;20295;-71
2022/11/30 04:54:36;;;;;;;45.63;14.53;;;;;;;4.77;100.00;96523.16;5059084;28;20220;-72
2022/11/30 04:57:03;;;;;;;43.13;14.37;;;;;;;4.67;100.00;96520.53;5060074;28;20213;-72
2022/11/30 04:59:29;;;;;;;43.57;13.77;;;;;;;4.58;100.00;96518.72;5059576;28;20389;-71
2022/11/30 05:01:56;;;;;;;43.33;14.03;;;;;;;4.77;100.00;96517.94;5059776;28;20208;-72
2022/11/30 05:04:24;;;;;;;42.70;14.63;;;;;;;4.88;100.00;96519.44;5059113;28;20205;-72
2022/11/30 05:06:50;;;;;;;50.57;15.27;;;;;;;4.87;100.00;96515.22;5059452;28;20212;-72
2022/11/30 05:09:17;;;;;;;45.17;14.47;;;;;;;4.95;100.00;96517.09;5059537;28;20205;-71
2022/11/30 05:11:45;;;;;;;47.03;15.73;;;;;;;4.91;100.00;96527.03;5059723;28;20200;-72
2022/11/30 05:14:11;;;;;;;42.83;13.40;;;;;;;4.94;100.00;96523.31;5057579;28;20311;-71
2022/11/30 05:16:38;;;;;;;37.43;13.47;;;;;;;4.98;100.00;96524.69;5059424;28;20205;-72
2022/11/30 05:19:05;;;;;;;37.77;12.40;;;;;;;4.87;100.00;96527.41;5059222;28;20684;-71
2022/11/30 05:21:32;;;;;;;46.10;13.27;;;;;;;5.03;100.00;96531.16;5059255;28;20204;-71
2022/11/30 05:23:59;;;;;;;40.43;13.27;;;;;;;4.69;100.00;96530.84;5058797;28;20200;-71
2022/11/30 05:26:26;;;;;;;45.83;13.90;;;;;;;4.78;100.00;96536.06;5059046;28;20230;-72
2022/11/30 05:28:52;;;;;;;37.43;13.53;;;;;;;4.94;100.00;96525.94;5058598;28;20205;-71
2022/11/30 05:31:19;;;;;;;49.63;14.57;;;;;;;4.87;100.00;96530.88;5059088;28;20212;-71
2022/11/30 05:33:50;;;;;;;41.23;13.60;;;;;;;5.06;100.00;96530.88;5058391;28;20232;-72
2022/11/30 05:36:17;;;;;;;42.43;13.53;;;;;;;5.01;100.00;96538.28;5059155;28;20999;-71
2022/11/30 05:38:45;;;;;;;37.10;12.80;;;;;;;4.99;100.00;96537.59;5057655;28;20660;-71
2022/11/30 05:41:11;;;;;;;39.93;13.47;;;;;;;4.86;100.00;96538.81;5058752;28;20213;-71
2022/11/30 05:43:38;;;;;;;42.77;12.77;;;;;;;4.76;100.00;96538.00;5058763;28;20216;-72
2022/11/30 05:46:06;;;;;;;44.10;13.47;;;;;;;4.89;100.00;96547.22;5058665;28;20235;-72
2022/11/30 05:48:33;;;;;;;40.50;13.80;;;;;;;4.85;100.00;96543.22;5059037;28;20482;-71
2022/11/30 05:51:05;;;;;;;42.20;14.07;;;;;;;5.02;100.00;96542.56;5058939;28;20219;-72
2022/11/30 05:53:32;;;;;;;35.97;11.67;;;;;;;4.92;100.00;96541.72;5057919;28;21218;-72
2022/11/30 05:56:03;;;;;;;43.30;14.20;;;;;;;4.98;100.00;96546.41;5059098;28;20316;-72
2022/11/30 05:58:29;;;;;;;39.73;12.97;;;;;;;4.91;100.00;96540.09;5059106;28;20680;-72
2022/11/30 06:00:56;;;;;;;36.93;13.37;;;;;;;5.04;100.00;96543.25;5057771;28;20208;-72
2022/11/30 06:03:23;;;;;;;37.70;14.33;;;;;;;5.05;100.00;96552.75;5057912;28;20210;-72
2022/11/30 06:05:51;;;;;;;42.03;14.20;;;;;;;4.91;100.00;96550.53;5058475;28;20575;-72
2022/11/30 06:08:17;;;;;;;41.20;14.03;;;;;;;5.08;100.00;96556.88;5058959;28;20212;-72
2022/11/30 06:10:44;;;;;;;43.10;14.97;;;;;;;5.11;100.00;96551.38;5058831;28;20204;-72
2022/11/30 06:13:13;;;;;;;42.87;14.40;;;;;;;5.06;100.00;96550.94;5058015;28;20204;-72
2022/11/30 06:15:40;;;;;;;53.60;16.83;;;;;;;5.11;100.00;96560.00;5057793;28;20232;-72
2022/11/30 06:18:08;;;;;;;48.73;15.20;;;;;;;5.21;100.00;96553.00;5058357;28;20204;-72
2022/11/30 06:20:35;;;;;;;56.50;18.07;;;;;;;5.08;100.00;96556.88;5058732;28;20400;-72
2022/11/30 06:23:01;;;;;;;42.77;15.47;;;;;;;5.18;100.00;96555.06;5058141;28;20210;-72
2022/11/30 06:25:28;;;;;;;51.90;15.03;;;;;;;5.25;100.00;96551.78;5057537;28;20212;-72
2022/11/30 06:27:55;;;;;;;49.10;16.30;;;;;;;5.14;100.00;96551.94;5058564;28;20208;-72
2022/11/30 06:30:23;;;;;;;51.37;16.37;;;;;;;5.13;100.00;96557.25;5058132;28;20211;-72
2022/11/30 06:32:51;;;;;;;39.30;15.77;;;;;;;5.17;100.00;96551.63;5058313;28;20200;-72
2022/11/30 06:35:19;;;;;;;51.87;17.40;;;;;;;5.11;100.00;96549.56;5057876;28;20228;-72
2022/11/30 06:37:45;;;;;;;48.10;16.87;;;;;;;5.01;100.00;96553.94;5058718;28;20205;-73
2022/11/30 06:40:13;;;;;;;43.47;14.60;;;;;;;4.95;100.00;96554.50;5057588;28;20702;-72
2022/11/30 06:42:40;;;;;;;45.23;16.17;;;;;;;4.93;100.00;96555.59;5057988;28;20201;-71
2022/11/30 06:45:07;;;;;;;45.83;16.17;;;;;;;4.94;100.00;96549.44;5056937;28;20662;-71
2022/11/30 06:47:35;;;;;;;49.80;16.67;;;;;;;4.95;100.00;96551.91;5057604;28;20236;-71
2022/11/30 06:50:02;;;;;;;48.27;16.50;;;;;;;5.04;100.00;96555.47;5057369;28;20212;-71
2022/11/30 06:52:30;;;;;;;46.33;15.77;;;;;;;5.16;100.00;96557.81;5057409;28;20205;-71
2022/11/30 06:54:56;;;;;;;50.40;16.70;;;;;;;5.11;100.00;96560.00;5056509;28;20232;-71
2022/11/30 06:57:26;;;;;;;47.70;15.50;;;;;;;5.04;100.00;96560.69;5057914;28;20208;-71
2022/11/30 06:59:53;;;;;;;46.13;17.07;;;;;;;5.08;100.00;96559.47;5057759;28;20211;-71
2022/11/30 07:02:19;;;;;;;52.63;17.30;;;;;;;5.04;100.00;96564.13;5056999;28;20204;-73
2022/11/30 07:04:47;;;;;;;47.00;17.53;;;;;;;4.93;100.00;96560.81;5056516;28;21068;-73
2022/11/30 07:07:14;;;;;;;50.53;15.93;;;;;;;5.05;100.00;96565.81;5057376;28;20234;-73
2022/11/30 07:09:41;;;;;;;48.63;16.23;;;;;;;4.83;100.00;96570.41;5057487;28;20203;-72
2022/11/30 07:12:08;;;;;;;50.20;16.40;;;;;;;4.74;100.00;96566.00;5057317;28;20226;-73
2022/11/30 07:14:35;;;;;;;48.53;16.17;;;;;;;4.79;100.00;96563.00;5055740;28;20224;-73
2022/11/30 07:17:03;;;;;;;46.47;16.37;;;;;;;4.79;100.00;96574.25;5057538;28;20207;-73
2022/11/30 07:19:29;;;;;;;45.70;17.00;;;;;;;4.94;100.00;96568.53;5057257;28;20314;-73
2022/11/30 07:21:57;;;;;;;52.57;17.57;;;;;;;5.07;100.00;96566.47;5056772;28;20205;-72
2022/11/30 07:27:08;;;;;;;58.47;18.47;;;;;;;4.95;100.00;96571.94;5057562;28;20211;-73
2022/11/30 07:29:35;;;;;;;53.77;16.27;;;;;;;4.98;100.00;96564.69;5056166;28;20204;-73
2022/11/30 07:32:02;;;;;;;50.97;16.83;;;;;;;5.03;100.00;96572.13;5057063;28;20205;-73
2022/11/30 07:34:28;;;;;;;51.10;15.67;;;;;;;5.15;100.00;96573.63;5056332;28;20236;-73
2022/11/30 07:36:55;;;;;;;53.97;17.33;;;;;;;5.15;100.00;96571.84;5056973;28;20690;-73
2022/11/30 07:39:23;;;;;;;50.13;17.30;;;;;;;5.14;100.00;96575.44;5056754;28;20208;-73
2022/11/30 07:41:50;;;;;;;58.77;18.37;;;;;;;4.98;100.00;96577.72;5056745;28;20205;-73
2022/11/30 07:44:16;;;;;;;61.70;16.87;;;;;;;4.93;100.00;96579.09;5055845;28;20200;-73
2022/11/30 07:46:43;;;;;;;43.90;16.30;;;;;;;4.85;100.00;96582.38;5057194;28;20204;-73
2022/11/30 07:49:10;;;;;;;51.63;17.20;;;;;;;4.97;100.00;96578.69;5055942;28;20242;-73
2022/11/30 07:51:37;;;;;;;47.70;16.30;;;;;;;5.01;100.00;96579.25;5057866;28;20200;-73
2022/11/30 07:54:04;;;;;;;49.73;16.13;;;;;;;5.10;100.00;96589.69;5056778;28;20201;-73
2022/11/30 07:56:32;;;;;;;57.23;16.43;;;;;;;5.09;100.00;96588.06;5055171;28;20230;-73
2022/11/30 07:59:01;;;;;;;53.43;17.37;;;;;;;5.09;100.00;96588.06;5056848;28;20204;-73
2022/11/30 08:01:30;;;;;;;53.43;16.43;;;;;;;5.14;100.00;96595.47;5055798;28;20208;-73
2022/11/30 08:03:57;;;;;;;53.13;17.13;;;;;;;5.17;100.00;96584.78;5055844;28;20299;-73
2022/11/30 08:06:26;;;;;;;59.50;17.13;;;;;;;5.32;100.00;96584.25;5056707;28;20216;-73
2022/11/30 08:08:54;;;;;;;53.97;17.83;;;;;;;5.22;100.00;96590.41;5056700;28;20797;-73
2022/11/30 08:11:22;;;;;;;50.87;16.93;;;;;;;5.27;100.00;96585.59;5055771;28;20743;-73
2022/11/30 08:13:51;;;;;;;58.87;17.80;;;;;;;5.32;100.00;96586.00;5056292;28;20204;-73
2022/11/30 08:16:20;;;;;;;56.63;17.20;;;;;;;5.39;100.00;96594.97;5056102;28;20228;-73
2022/11/30 08:18:47;;;;;;;50.23;16.47;;;;;;;5.39;100.00;96600.19;5056736;28;20204;-73
2022/11/30 08:21:16;;;;;;;53.50;16.53;;;;;;;5.52;100.00;96596.34;5056389;28;20242;-72
2022/11/30 08:23:44;;;;;;;55.80;17.63;;;;;;;5.47;100.00;96585.47;5056416;28;20196;-72
2022/11/30 08:26:14;;;;;;;55.13;17.63;;;;;;;5.54;100.00;96581.34;5056213;28;20225;-72
2022/11/30 08:28:41;;;;;;;54.30;15.90;;;;;;;5.63;100.00;96590.97;5056124;28;20212;-73
2022/11/30 08:31:12;;;;;;;48.07;16.37;;;;;;;5.67;100.00;96589.72;5056872;28;20201;-72
2022/11/30 08:33:38;;;;;;;50.67;15.97;;;;;;;5.60;100.00;96586.84;5055831;28;20600;-72
2022/11/30 08:36:06;;;;;;;50.00;16.67;;;;;;;5.59;100.00;96594.84;5053342;28;21002;-72
2022/11/30 08:38:33;;;;;;;55.90;15.57;;;;;;;5.50;100.00;96593.88;5055065;28;20753;-72
2022/11/30 08:40:59;;;;;;;47.23;14.97;;;;;;;5.62;100.00;96597.16;5055938;28;20205;-72
2022/11/30 08:43:26;;;;;;;49.30;15.80;;;;;;;5.69;100.00;96599.09;5056449;28;20212;-72
2022/11/30 08:45:52;;;;;;;45.87;15.80;;;;;;;5.74;100.00;96596.03;5055902;28;20657;-72
2022/11/30 08:48:20;;;;;;;44.90;15.60;;;;;;;5.77;100.00;96593.19;5055487;28;20957;-72
2022/11/30 08:50:47;;;;;;;45.70;15.17;;;;;;;5.67;100.00;96590.53;5055167;28;20208;-71
2022/11/30 08:53:13;;;;;;;51.77;16.20;;;;;;;5.54;100.00;96589.19;5055240;28;20572;-72
2022/11/30 08:55:40;;;;;;;43.50;15.03;;;;;;;5.48;100.00;96592.34;5054306;28;20696;-72
2022/11/30 08:58:07;;;;;;;41.97;13.90;;;;;;;5.48;100.00;96597.56;5055028;28;20677;-72
2022/11/30 09:00:33;;;;;;;35.73;13.27;;;;;;;5.45;100.00;96597.88;5055804;28;20206;-72
2022/11/30 09:03:00;;;;;;;42.20;14.30;;;;;;;5.55;100.00;96602.13;5055342;28;20212;-72
2022/11/30 09:05:28;;;;;;;49.07;14.83;;;;;;;5.67;100.00;96600.19;5053524;28;20227;-72
2022/11/30 09:07:54;;;;;;;45.43;13.80;;;;;;;5.75;100.00;96602.94;5054969;28;20223;-72
2022/11/30 09:10:21;;;;;;;43.33;14.33;;;;;;;5.82;100.00;96604.06;5054189;28;20680;-72
2022/11/30 09:12:47;;;;;;;39.87;13.50;;;;;;;5.83;100.00;96608.31;5055100;28;20672;-71
2022/11/30 09:15:14;;;;;;;37.13;13.50;;;;;;;5.70;100.00;96610.34;5057860;28;20376;-71
2022/11/30 09:17:40;;;;;;;46.13;14.63;;;;;;;5.82;100.00;96610.13;5059326;28;20201;-71
2022/11/30 09:20:08;;;;;;;43.87;13.50;;;;;;;5.99;100.00;96611.19;5059249;28;20203;-71
2022/11/30 09:22:36;;;;;;;37.83;13.33;;;;;;;6.00;100.00;96610.25;5059692;28;20203;-71
2022/11/30 09:25:02;;;;;;;43.80;14.03;;;;;;;5.92;100.00;96608.31;5058907;28;20760;-71
2022/11/30 09:27:31;;;;;;;52.33;15.43;;;;;;;5.97;100.00;96613.13;5058945;28;20211;-71
2022/11/30 09:29:58;;;;;;;43.60;14.97;;;;;;;5.81;100.00;96615.50;5059430;28;20574;-71
2022/11/30 09:32:25;;;;;;;43.43;13.67;;;;;;;5.46;100.00;96617.81;5059036;28;20961;-71
2022/11/30 09:34:51;;;;;;;42.40;15.00;;;;;;;5.67;100.00;96611.47;5058103;28;20712;-71
2022/11/30 09:37:18;;;;;;;43.70;14.00;;;;;;;5.57;100.00;96612.44;5058482;28;20672;-71
2022/11/30 09:39:46;;;;;;;48.23;14.90;;;;;;;5.75;100.00;96605.53;5055738;28;20624;-71
2022/11/30 09:42:32;;;;;;;47.10;14.20;;;;;;;5.78;100.00;96607.91;5058087;28;20942;-71
2022/11/30 09:45:05;;;;;;;45.17;14.03;;;;;;;5.71;100.00;96609.41;5057627;28;20223;-71
2022/11/30 09:47:54;;;;;;;44.57;13.80;;;;;;;5.67;100.00;96606.22;5058448;28;20208;-71
2022/11/30 09:50:24;;;;;;;50.47;14.90;;;;;;;5.56;100.00;96608.16;5058504;28;20547;-71
2022/11/30 09:52:54;;;;;;;44.57;13.60;;;;;;;5.61;100.00;96613.81;5058037;28;20208;-71
2022/11/30 09:55:27;;;;;;;38.67;13.13;;;;;;;5.65;100.00;96608.19;5057523;28;20228;-71
2022/11/30 09:57:58;;;;;;;47.10;14.97;;;;;;;5.60;100.00;96614.75;5059093;28;20211;-72
2022/11/30 10:00:25;;;;;;;40.30;13.17;;;;;;;5.52;100.00;96607.63;5058795;28;20208;-71
2022/11/30 10:02:53;;;;;;;42.67;14.03;;;;;;;5.63;100.00;96606.66;5058377;28;20204;-71
2022/11/30 10:05:22;;;;;;;52.07;15.67;;;;;;;5.69;100.00;96606.09;5057685;28;20704;-71
2022/11/30 10:08:06;;;;;;;48.93;14.40;;;;;;;5.73;100.00;96604.88;5057232;28;20208;-71
2022/11/30 10:10:40;;;;;;;52.30;15.07;;;;;;;5.72;100.00;96603.22;5057504;28;20204;-71
2022/11/30 10:13:26;;;;;;;49.70;14.30;;;;;;;5.90;100.00;96602.38;5057736;28;20586;-71
2022/11/30 10:16:06;;;;;;;51.00;14.20;;;;;;;5.85;100.00;96596.75;5057981;28;20262;-71
2022/11/30 10:18:47;;;;;;;41.80;13.53;;;;;;;5.85;100.00;96606.41;5058285;28;20967;-71
2022/11/30 10:21:27;;;;;;;51.27;13.90;;;;;;;5.85;100.00;96603.78;5058112;28;20219;-70
2022/11/30 10:24:14;;;;;;;41.57;11.90;;;;;;;5.88;100.00;96608.72;5057307;28;20204;-71
2022/11/30 10:26:51;;;;;;;42.57;12.73;;;;;;;5.77;100.00;96606.28;5057999;28;20197;-71
2022/11/30 10:29:20;;;;;;;39.27;13.17;;;;;;;5.71;100.00;96604.19;5058010;28;20700;-71
2022/11/30 10:31:48;;;;;;;40.90;12.50;;;;;;;5.66;100.00;96603.75;5058351;28;20197;-71
2022/11/30 10:34:20;;;;;;;40.73;11.80;;;;;;;5.71;100.00;96594.53;5057470;28;20213;-71
2022/11/30 10:36:53;;;;;;;36.73;12.33;;;;;;;5.73;100.00;96590.00;5058161;28;20228;-71
2022/11/30 10:39:26;;;;;;;43.87;12.60;;;;;;;5.82;100.00;96593.63;5058845;28;20200;-71
2022/11/30 10:41:59;;;;;;;37.73;11.23;;;;;;;5.76;100.00;96588.94;5059487;28;20580;-71
2022/11/30 10:44:30;;;;;;;46.00;12.77;;;;;;;5.79;100.00;96589.50;5057475;28;20203;-71
2022/11/30 10:47:01;;;;;;;37.67;12.23;;;;;;;5.79;100.00;96588.63;5057827;28;20206;-71
2022/11/30 10:49:29;;;;;;;41.97;12.37;;;;;;;5.78;100.00;96584.38;5058201;28;20291;-71
2022/11/30 10:52:02;;;;;;;36.17;11.97;;;;;;;5.77;100.00;96585.34;5058318;28;20204;-71
2022/11/30 10:54:31;;;;;;;44.97;11.93;;;;;;;5.78;100.00;96582.59;5057153;28;20234;-71
2022/11/30 10:57:04;;;;;;;35.33;11.43;;;;;;;5.91;100.00;96577.91;5057216;28;20232;-71
2022/11/30 10:59:39;;;;;;;34.57;11.47;;;;;;;5.98;100.00;96583.38;5057182;28;20204;-71
2022/11/30 11:02:35;;;;;;;41.37;11.40;;;;;;;6.00;100.00;96576.25;5057898;28;20204;-70
2022/11/30 11:05:20;;;;;;;42.37;11.23;;;;;;;5.90;100.00;96575.44;5055741;28;21125;-71
2022/11/30 11:07:53;;;;;;;36.47;11.40;;;;;;;5.91;100.00;96579.69;5056981;28;20586;-71
2022/11/30 11:10:25;;;;;;;33.70;10.83;;;;;;;5.82;100.00;96578.75;5056031;28;20200;-71
2022/11/30 11:12:54;;;;;;;32.43;11.27;;;;;;;5.86;100.00;96579.28;5057532;28;20690;-71
2022/11/30 11:15:24;;;;;;;36.23;11.20;;;;;;;5.74;100.00;96572.50;5056225;28;20233;-71
2022/11/30 11:17:52;;;;;;;30.67;10.93;;;;;;;5.70;100.00;96579.84;5057578;28;20208;-71
2022/11/30 11:20:32;;;;;;;33.60;10.47;;;;;;;5.84;100.00;96574.19;5055746;28;20204;-71
2022/11/30 11:22:59;;;;;;;34.93;11.37;;;;;;;5.86;100.00;96579.28;5056620;28;20603;-71
2022/11/30 11:25:31;;;;;;;36.73;12.17;;;;;;;6.01;100.00;96577.88;5056350;28;20220;-71